Time;durP1;ratioP1;P1;durP2;ratioP2;P2;SDS_P1;SDS_P2;PMS_P1;PMS_P2;Temp;Humidity;BMP_temperature;BMP_pressure;BME280_temperature;BME280_humidity;BME280_pressure;Samples;Min_cycle;Max_cycle;Signal;HPM_P1;HPM_P2
2021/07/05 00:02:34;;;;;;;15.48;3.20;;;;;;;;;;6105111;29;20052;-79
2021/07/05 00:05:36;;;;;;;18.58;3.40;;;;;;;;;;6117975;29;20044;-80
2021/07/05 00:08:38;;;;;;;10.65;3.55;;;;;;;;;;6088025;29;20076;-79
2021/07/05 00:11:39;;;;;;;12.60;3.63;;;;;;;;;;6115631;29;20241;-79
2021/07/05 00:14:41;;;;;;;5.45;3.13;;;;;;;;;;6128169;29;20051;-79
2021/07/05 00:17:43;;;;;;;15.82;3.03;;;;;;;;;;6110679;29;20498;-79
2021/07/05 00:20:46;;;;;;;9.13;2.75;;;;;;;;;;6105393;29;20044;-79
2021/07/05 00:23:48;;;;;;;4.68;2.70;;;;;;;;;;6107200;29;20104;-79
2021/07/05 00:26:50;;;;;;;10.93;2.95;;;;;;;;;;6123618;29;20529;-79
2021/07/05 00:29:51;;;;;;;7.15;2.80;;;;;;;;;;6129141;29;20119;-79
2021/07/05 00:32:53;;;;;;;6.63;2.50;;;;;;;;;;6115150;29;20039;-79
2021/07/05 00:35:55;;;;;;;15.90;2.85;;;;;;;;;;6130130;29;20039;-79
2021/07/05 00:38:57;;;;;;;9.02;2.95;;;;;;;;;;6152497;28;20047;-79
2021/07/05 00:41:59;;;;;;;4.07;2.95;;;;;;;;;;6132195;29;20142;-79
2021/07/05 00:45:03;;;;;;;6.90;3.47;;;;;;;;;;6126886;29;20118;-79
2021/07/05 00:48:05;;;;;;;6.22;2.92;;;;;;;;;;6149178;28;20067;-79
2021/07/05 00:51:06;;;;;;;7.82;3.30;;;;;;;;;;6168275;28;20111;-79
2021/07/05 00:54:08;;;;;;;4.93;2.90;;;;;;;;;;6152474;28;20051;-79
2021/07/05 00:57:25;;;;;;;7.55;3.63;;;;;;;;;;6132346;29;20047;-79
2021/07/05 01:00:28;;;;;;;8.88;2.70;;;;;;;;;;6105982;29;20148;-78
2021/07/05 01:03:30;;;;;;;11.98;2.85;;;;;;;;;;6103414;29;20521;-79
2021/07/05 01:06:31;;;;;;;8.88;3.10;;;;;;;;;;6102610;29;21168;-79
2021/07/05 01:09:33;;;;;;;6.20;2.80;;;;;;;;;;6103502;29;20103;-79
2021/07/05 01:12:35;;;;;;;15.35;3.25;;;;;;;;;;6102342;29;20076;-78
2021/07/05 01:15:37;;;;;;;23.27;3.37;;;;;;;;;;6118908;29;20052;-79
2021/07/05 01:18:39;;;;;;;6.75;3.17;;;;;;;;;;6103396;29;20036;-79
2021/07/05 01:21:40;;;;;;;4.25;2.95;;;;;;;;;;6104556;29;20056;-79
2021/07/05 01:24:44;;;;;;;9.90;3.20;;;;;;;;;;6102093;29;20047;-79
2021/07/05 01:27:46;;;;;;;6.63;2.90;;;;;;;;;;6101794;29;20044;-78
2021/07/05 01:30:48;;;;;;;11.60;2.88;;;;;;;;;;6102443;29;20072;-78
2021/07/05 01:33:52;;;;;;;21.70;3.13;;;;;;;;;;6154372;28;20500;-78
2021/07/05 01:36:54;;;;;;;28.35;2.83;;;;;;;;;;6166660;28;20059;-79
2021/07/05 01:39:55;;;;;;;12.65;2.70;;;;;;;;;;6143517;28;20513;-79
2021/07/05 01:42:58;;;;;;;5.00;2.47;;;;;;;;;;6146953;28;20051;-78
2021/07/05 01:46:00;;;;;;;19.02;2.78;;;;;;;;;;6159458;28;20098;-79
2021/07/05 01:49:02;;;;;;;4.15;2.83;;;;;;;;;;6163907;28;20545;-78
2021/07/05 01:52:05;;;;;;;7.30;2.00;;;;;;;;;;6150860;28;20047;-79
2021/07/05 01:55:10;;;;;;;20.63;4.07;;;;;;;;;;6155576;28;20126;-78
2021/07/05 01:58:11;;;;;;;22.95;4.18;;;;;;;;;;6126748;28;20075;-78
2021/07/05 02:01:13;;;;;;;11.18;3.80;;;;;;;;;;6127470;28;20047;-79
2021/07/05 02:04:15;;;;;;;25.45;3.85;;;;;;;;;;6121723;28;20050;-79
2021/07/05 02:07:17;;;;;;;21.92;2.60;;;;;;;;;;6164135;28;20050;-78
2021/07/05 02:10:23;;;;;;;5.10;2.35;;;;;;;;;;6141884;28;20115;-78
2021/07/05 02:13:27;;;;;;;88.45;6.57;;;;;;;;;;6140338;28;20079;-79
2021/07/05 02:16:29;;;;;;;57.97;8.57;;;;;;;;;;6142819;28;20052;-79
2021/07/05 02:19:31;;;;;;;24.88;5.72;;;;;;;;;;6116603;29;20071;-78
2021/07/05 02:22:32;;;;;;;24.23;4.47;;;;;;;;;;6124972;29;20122;-78
2021/07/05 02:25:34;;;;;;;32.25;3.67;;;;;;;;;;6128259;29;20044;-79
2021/07/05 02:28:38;;;;;;;10.65;3.85;;;;;;;;;;6123322;29;20068;-78
2021/07/05 02:31:40;;;;;;;5.90;3.35;;;;;;;;;;6126163;28;20083;-78
2021/07/05 02:34:41;;;;;;;23.00;3.90;;;;;;;;;;6135863;28;20048;-78
2021/07/05 02:37:44;;;;;;;10.80;3.92;;;;;;;;;;6116005;28;20135;-77
2021/07/05 02:40:49;;;;;;;14.10;3.90;;;;;;;;;;6129594;28;20073;-78
2021/07/05 02:43:51;;;;;;;13.82;3.95;;;;;;;;;;6158889;28;20070;-77
2021/07/05 02:46:53;;;;;;;10.38;3.15;;;;;;;;;;6141882;28;20059;-77
2021/07/05 02:49:55;;;;;;;13.30;3.70;;;;;;;;;;6144471;28;20043;-78
2021/07/05 02:52:58;;;;;;;9.65;3.50;;;;;;;;;;6144327;28;20043;-78
2021/07/05 02:56:00;;;;;;;12.50;3.20;;;;;;;;;;6145964;28;20189;-77
2021/07/05 02:59:01;;;;;;;3.88;2.35;;;;;;;;;;6142745;28;20194;-77
2021/07/05 03:02:03;;;;;;;4.38;2.50;;;;;;;;;;6140925;28;20076;-77
2021/07/05 03:05:08;;;;;;;19.35;2.78;;;;;;;;;;6116416;29;20212;-78
2021/07/05 03:08:10;;;;;;;24.90;3.10;;;;;;;;;;6096037;28;20119;-77
2021/07/05 03:11:12;;;;;;;10.45;2.42;;;;;;;;;;6108839;29;20122;-78
2021/07/05 03:14:14;;;;;;;3.65;2.30;;;;;;;;;;6108407;29;20127;-78
2021/07/05 03:17:16;;;;;;;3.15;2.25;;;;;;;;;;6132960;28;20090;-78
2021/07/05 03:20:23;;;;;;;6.07;2.65;;;;;;;;;;6139859;28;20054;-78
2021/07/05 03:23:25;;;;;;;10.60;2.58;;;;;;;;;;6140771;28;20464;-78
2021/07/05 03:26:27;;;;;;;28.52;4.45;;;;;;;;;;6141267;28;20544;-77
2021/07/05 03:29:28;;;;;;;4.60;2.35;;;;;;;;;;6144103;28;20134;-78
2021/07/05 03:32:30;;;;;;;5.35;2.88;;;;;;;;;;6142756;28;20126;-78
2021/07/05 03:35:32;;;;;;;4.55;2.65;;;;;;;;;;6121357;28;20146;-78
2021/07/05 03:38:34;;;;;;;19.25;3.20;;;;;;;;;;6142079;28;20185;-78
2021/07/05 03:41:35;;;;;;;7.35;2.67;;;;;;;;;;6141453;28;20053;-78
2021/07/05 03:44:37;;;;;;;6.13;2.78;;;;;;;;;;6138111;28;20138;-78
2021/07/05 03:47:39;;;;;;;5.75;2.70;;;;;;;;;;6119175;28;20094;-78
2021/07/05 03:50:40;;;;;;;6.70;2.55;;;;;;;;;;6139645;28;20074;-77
2021/07/05 03:53:43;;;;;;;5.22;2.70;;;;;;;;;;6121747;28;20138;-77
2021/07/05 03:56:44;;;;;;;14.68;2.65;;;;;;;;;;6125144;28;20519;-77
2021/07/05 03:59:46;;;;;;;19.08;3.03;;;;;;;;;;6116028;29;20047;-78
2021/07/05 04:02:48;;;;;;;4.93;2.70;;;;;;;;;;6118155;29;20044;-78
2021/07/05 04:05:51;;;;;;;5.13;3.33;;;;;;;;;;6132566;29;20510;-77
2021/07/05 04:08:55;;;;;;;6.10;3.15;;;;;;;;;;6118867;28;20126;-78
2021/07/05 04:11:56;;;;;;;7.75;3.08;;;;;;;;;;6133237;29;20102;-78
2021/07/05 04:14:58;;;;;;;7.05;3.60;;;;;;;;;;6116976;29;20323;-77
2021/07/05 04:17:59;;;;;;;7.03;4.25;;;;;;;;;;6119141;28;20047;-78
2021/07/05 04:21:02;;;;;;;11.05;4.30;;;;;;;;;;6118550;29;20505;-78
2021/07/05 04:24:03;;;;;;;11.70;4.85;;;;;;;;;;6116463;28;20517;-78
2021/07/05 04:27:05;;;;;;;6.85;4.15;;;;;;;;;;6119015;29;20043;-78
2021/07/05 04:30:08;;;;;;;6.68;3.65;;;;;;;;;;6117817;29;20071;-77
2021/07/05 04:33:10;;;;;;;4.07;2.67;;;;;;;;;;6132645;28;20122;-78
2021/07/05 04:36:11;;;;;;;3.75;2.55;;;;;;;;;;6117649;29;20190;-77
2021/07/05 04:39:13;;;;;;;4.38;2.40;;;;;;;;;;6132150;28;20156;-78
2021/07/05 04:42:14;;;;;;;3.50;2.38;;;;;;;;;;6114938;29;20055;-78
2021/07/05 04:45:19;;;;;;;4.50;2.97;;;;;;;;;;6114911;28;20076;-78
2021/07/05 04:48:21;;;;;;;4.32;2.42;;;;;;;;;;6138388;28;20493;-78
2021/07/05 04:51:23;;;;;;;3.73;2.30;;;;;;;;;;6137408;28;20122;-77
2021/07/05 04:54:25;;;;;;;4.57;2.63;;;;;;;;;;6157360;28;20602;-78
2021/07/05 04:57:28;;;;;;;4.43;2.63;;;;;;;;;;6113964;28;20051;-78
2021/07/05 05:00:32;;;;;;;5.40;3.10;;;;;;;;;;6129096;28;20130;-78
2021/07/05 05:03:34;;;;;;;3.92;2.90;;;;;;;;;;6117018;29;20439;-78
2021/07/05 05:06:36;;;;;;;8.18;3.75;;;;;;;;;;6130759;29;20083;-78
2021/07/05 05:09:37;;;;;;;6.80;3.20;;;;;;;;;;6125925;28;20079;-77
2021/07/05 05:12:40;;;;;;;5.57;3.17;;;;;;;;;;6139300;28;20058;-78
2021/07/05 05:15:43;;;;;;;4.35;2.80;;;;;;;;;;6149593;28;20517;-77
2021/07/05 05:18:44;;;;;;;5.60;3.35;;;;;;;;;;6115390;29;20158;-78
2021/07/05 05:21:46;;;;;;;4.70;3.30;;;;;;;;;;6131147;28;20812;-77
2021/07/05 05:24:47;;;;;;;4.70;2.88;;;;;;;;;;6115809;29;20413;-78
2021/07/05 05:27:50;;;;;;;4.90;3.35;;;;;;;;;;6117201;29;20072;-77
2021/07/05 05:30:52;;;;;;;3.63;3.05;;;;;;;;;;6115899;29;20119;-77
2021/07/05 05:33:53;;;;;;;3.47;2.83;;;;;;;;;;6131164;29;20565;-77
2021/07/05 05:36:55;;;;;;;4.22;3.30;;;;;;;;;;6115634;29;20160;-78
2021/07/05 05:39:58;;;;;;;5.20;2.80;;;;;;;;;;6127226;28;20113;-78
2021/07/05 05:42:59;;;;;;;4.77;3.00;;;;;;;;;;6138465;28;20047;-78
2021/07/05 05:46:01;;;;;;;3.72;3.00;;;;;;;;;;6132730;28;20051;-78
2021/07/05 05:49:04;;;;;;;5.20;3.20;;;;;;;;;;6120911;28;20059;-78
2021/07/05 05:52:06;;;;;;;7.75;4.10;;;;;;;;;;6151932;28;20457;-78
2021/07/05 05:55:10;;;;;;;8.88;5.63;;;;;;;;;;6146982;28;20039;-77
2021/07/05 05:58:11;;;;;;;9.45;5.20;;;;;;;;;;6139651;28;20421;-77
2021/07/05 06:01:13;;;;;;;7.72;4.65;;;;;;;;;;6136667;28;20560;-78
2021/07/05 06:04:15;;;;;;;6.93;3.90;;;;;;;;;;6138583;28;20118;-77
2021/07/05 06:07:16;;;;;;;7.43;4.10;;;;;;;;;;6137978;28;20082;-77
2021/07/05 06:10:21;;;;;;;5.28;4.50;;;;;;;;;;6129514;28;20040;-78
2021/07/05 06:13:23;;;;;;;5.55;4.38;;;;;;;;;;6115740;29;20565;-77
2021/07/05 06:16:25;;;;;;;6.15;4.40;;;;;;;;;;6129613;28;20437;-77
2021/07/05 06:19:27;;;;;;;7.33;5.57;;;;;;;;;;6116237;29;20058;-77
2021/07/05 06:22:30;;;;;;;9.98;6.93;;;;;;;;;;6131920;28;20596;-79
2021/07/05 06:25:31;;;;;;;8.02;5.25;;;;;;;;;;6150030;28;20074;-78
2021/07/05 06:28:35;;;;;;;7.72;4.90;;;;;;;;;;6137180;28;20182;-78
2021/07/05 06:31:36;;;;;;;7.25;5.15;;;;;;;;;;6127331;28;20054;-77
2021/07/05 06:34:41;;;;;;;7.70;5.57;;;;;;;;;;6115760;29;20044;-77
2021/07/05 06:37:43;;;;;;;9.07;5.63;;;;;;;;;;6115487;29;20127;-77
2021/07/05 06:40:52;;;;;;;9.63;5.60;;;;;;;;;;6116721;28;20060;-78
2021/07/05 06:43:54;;;;;;;8.32;5.18;;;;;;;;;;6130218;29;20047;-78
2021/07/05 06:46:55;;;;;;;8.95;5.82;;;;;;;;;;6129275;28;20174;-78
2021/07/05 06:49:57;;;;;;;10.13;5.85;;;;;;;;;;6156799;28;20043;-78
2021/07/05 06:52:59;;;;;;;9.13;5.45;;;;;;;;;;6140362;28;20107;-78
2021/07/05 06:56:01;;;;;;;7.55;4.57;;;;;;;;;;6127968;28;20115;-78
2021/07/05 06:59:03;;;;;;;5.68;4.38;;;;;;;;;;6116315;29;20067;-79
2021/07/05 07:02:04;;;;;;;4.63;3.70;;;;;;;;;;6116389;28;20080;-78
2021/07/05 07:05:10;;;;;;;7.10;4.00;;;;;;;;;;6115023;29;20715;-78
2021/07/05 07:08:12;;;;;;;6.53;4.28;;;;;;;;;;6114009;29;20080;-78
2021/07/05 07:11:14;;;;;;;6.20;4.10;;;;;;;;;;6115425;28;20075;-79
2021/07/05 07:14:18;;;;;;;7.18;4.22;;;;;;;;;;6113495;29;20080;-78
2021/07/05 07:20:22;;;;;;;5.75;4.43;;;;;;;;;;6153564;28;20039;-78
2021/07/05 07:23:24;;;;;;;5.13;4.50;;;;;;;;;;6137319;28;20122;-79
2021/07/05 07:26:25;;;;;;;5.20;4.40;;;;;;;;;;6144525;28;20050;-79
2021/07/05 07:29:27;;;;;;;6.28;4.63;;;;;;;;;;6134213;29;20040;-78
2021/07/05 07:32:29;;;;;;;6.00;4.13;;;;;;;;;;6119155;28;20838;-78
2021/07/05 07:35:31;;;;;;;4.55;4.03;;;;;;;;;;6133382;29;20475;-78
2021/07/05 07:38:38;;;;;;;4.10;3.80;;;;;;;;;;6119343;29;20201;-78
2021/07/05 07:41:39;;;;;;;5.00;3.60;;;;;;;;;;6133911;28;20182;-78
2021/07/05 07:44:41;;;;;;;5.90;4.47;;;;;;;;;;6117216;29;20514;-78
2021/07/05 07:47:43;;;;;;;5.38;3.55;;;;;;;;;;6136756;28;20752;-78
2021/07/05 07:50:45;;;;;;;3.93;3.30;;;;;;;;;;6157322;28;20057;-78
2021/07/05 07:53:46;;;;;;;3.85;3.30;;;;;;;;;;6156705;28;20547;-78
2021/07/05 07:56:48;;;;;;;4.82;3.25;;;;;;;;;;6123572;28;20044;-78
2021/07/05 07:59:50;;;;;;;4.35;3.30;;;;;;;;;;6130477;28;20098;-78
2021/07/05 08:02:51;;;;;;;4.18;3.10;;;;;;;;;;6130522;28;20075;-79
2021/07/05 08:05:54;;;;;;;4.13;2.47;;;;;;;;;;6140381;28;20059;-78
2021/07/05 08:08:56;;;;;;;3.25;2.58;;;;;;;;;;6139749;28;20047;-78
2021/07/05 08:11:58;;;;;;;3.28;2.40;;;;;;;;;;6137503;28;20051;-79
2021/07/05 08:15:00;;;;;;;3.08;2.20;;;;;;;;;;6141124;28;20084;-78
2021/07/05 08:18:02;;;;;;;4.65;2.70;;;;;;;;;;6139402;28;20138;-78
2021/07/05 08:21:04;;;;;;;2.40;2.20;;;;;;;;;;6122346;28;20152;-78
2021/07/05 08:24:06;;;;;;;3.20;2.33;;;;;;;;;;6137276;28;20480;-79
2021/07/05 08:27:07;;;;;;;3.37;2.47;;;;;;;;;;6139619;28;20047;-78
2021/07/05 08:30:09;;;;;;;3.60;2.53;;;;;;;;;;6139930;28;20156;-78
2021/07/05 08:33:11;;;;;;;2.43;2.23;;;;;;;;;;6141975;28;20050;-78
2021/07/05 08:36:13;;;;;;;4.13;2.65;;;;;;;;;;6154902;28;20146;-77
2021/07/05 08:39:15;;;;;;;2.80;2.33;;;;;;;;;;6138696;28;20062;-78
2021/07/05 08:42:22;;;;;;;4.30;2.75;;;;;;;;;;6141662;28;20047;-78
2021/07/05 08:45:24;;;;;;;3.45;2.25;;;;;;;;;;6136124;28;20122;-77
2021/07/05 08:48:29;;;;;;;3.13;2.30;;;;;;;;;;6142759;28;20109;-77
2021/07/05 08:51:31;;;;;;;2.60;2.40;;;;;;;;;;6141964;28;20483;-78
2021/07/05 08:54:32;;;;;;;3.30;2.30;;;;;;;;;;6137112;28;20048;-78
2021/07/05 08:57:41;;;;;;;2.60;2.40;;;;;;;;;;6117934;29;20401;-78
2021/07/05 09:00:43;;;;;;;3.00;2.50;;;;;;;;;;6132766;29;20123;-78
2021/07/05 09:03:45;;;;;;;4.43;2.30;;;;;;;;;;6131709;29;20048;-77
2021/07/05 09:07:05;;;;;;;3.53;2.25;;;;;;;;;;6116025;29;20054;-78
2021/07/05 09:10:09;;;;;;;3.83;1.92;;;;;;;;;;6116946;28;20067;-77
2021/07/05 09:13:16;;;;;;;3.33;2.10;;;;;;;;;;6116965;29;20060;-78
2021/07/05 09:16:48;;;;;;;2.00;1.88;;;;;;;;;;6117070;28;20043;-78
2021/07/05 09:19:50;;;;;;;1.90;1.65;;;;;;;;;;6107905;29;20052;-78
2021/07/05 09:23:12;;;;;;;9.60;1.90;;;;;;;;;;6117482;29;20122;-78
2021/07/05 09:26:19;;;;;;;2.10;1.50;;;;;;;;;;6123659;28;20050;-78
2021/07/05 09:29:22;;;;;;;3.80;1.70;;;;;;;;;;6140727;28;20542;-78
2021/07/05 09:32:29;;;;;;;1.65;1.40;;;;;;;;;;6122434;28;20130;-78
2021/07/05 09:35:37;;;;;;;2.28;1.30;;;;;;;;;;6128271;28;20621;-77
2021/07/05 09:38:43;;;;;;;1.30;1.20;;;;;;;;;;6137574;28;20126;-78
2021/07/05 09:41:47;;;;;;;2.83;1.05;;;;;;;;;;6140261;28;20129;-78
2021/07/05 09:44:48;;;;;;;1.98;1.10;;;;;;;;;;6138996;28;20098;-77
2021/07/05 09:48:12;;;;;;;2.35;0.80;;;;;;;;;;6135261;28;20059;-78
2021/07/05 09:51:18;;;;;;;1.00;0.90;;;;;;;;;;6140216;28;20505;-78
2021/07/05 09:54:24;;;;;;;1.55;0.80;;;;;;;;;;6133050;28;20541;-77
2021/07/05 09:57:44;;;;;;;0.80;0.80;;;;;;;;;;6139721;28;20504;-78
2021/07/05 10:00:46;;;;;;;1.27;1.00;;;;;;;;;;6134664;28;20094;-77
2021/07/05 10:03:48;;;;;;;1.05;1.00;;;;;;;;;;6116465;29;20076;-78
2021/07/05 10:06:50;;;;;;;1.40;0.98;;;;;;;;;;6115210;29;20104;-78
2021/07/05 10:09:52;;;;;;;2.38;1.00;;;;;;;;;;6130821;28;20044;-79
2021/07/05 10:12:59;;;;;;;2.40;1.00;;;;;;;;;;6118332;29;20090;-79
2021/07/05 10:16:07;;;;;;;2.30;1.70;;;;;;;;;;6117319;28;20414;-79
2021/07/05 10:19:09;;;;;;;1.23;1.00;;;;;;;;;;6132084;29;20461;-78
2021/07/05 10:22:13;;;;;;;2.17;1.00;;;;;;;;;;6116570;29;20509;-79
2021/07/05 10:25:17;;;;;;;1.65;0.85;;;;;;;;;;6116565;28;20044;-79
2021/07/05 10:28:19;;;;;;;1.25;0.80;;;;;;;;;;6118739;29;20173;-78
2021/07/05 10:31:21;;;;;;;1.10;0.80;;;;;;;;;;6118407;28;20047;-79
2021/07/05 10:34:23;;;;;;;0.67;0.60;;;;;;;;;;6132209;29;20122;-78
2021/07/05 10:37:45;;;;;;;2.45;0.90;;;;;;;;;;6117413;29;20550;-79
2021/07/05 10:40:55;;;;;;;1.67;0.73;;;;;;;;;;6132288;28;20390;-79
2021/07/05 10:44:04;;;;;;;2.60;0.77;;;;;;;;;;6117507;29;20099;-78
2021/07/05 10:47:06;;;;;;;1.42;0.80;;;;;;;;;;6118939;28;20450;-80
2021/07/05 10:50:42;;;;;;;0.85;0.80;;;;;;;;;;6115924;29;20046;-78
2021/07/05 10:53:44;;;;;;;1.15;0.70;;;;;;;;;;6116276;29;20078;-79
2021/07/05 10:56:53;;;;;;;1.70;0.80;;;;;;;;;;6122748;28;20101;-78
2021/07/05 11:00:06;;;;;;;1.58;0.98;;;;;;;;;;6123537;28;20087;-79
2021/07/05 11:03:07;;;;;;;1.23;0.68;;;;;;;;;;6142044;28;20043;-79
2021/07/05 11:06:29;;;;;;;1.02;0.70;;;;;;;;;;6118477;28;20525;-79
2021/07/05 11:09:31;;;;;;;1.48;0.70;;;;;;;;;;6099456;28;20116;-79
2021/07/05 11:12:33;;;;;;;1.85;0.65;;;;;;;;;;6121081;28;20094;-79
2021/07/05 11:15:44;;;;;;;1.08;0.80;;;;;;;;;;6117481;28;20044;-78
2021/07/05 11:18:45;;;;;;;1.63;0.80;;;;;;;;;;6097481;29;20215;-79
2021/07/05 11:21:47;;;;;;;0.80;0.80;;;;;;;;;;6121311;29;20107;-78
2021/07/05 11:24:58;;;;;;;0.82;0.57;;;;;;;;;;6119173;28;20421;-79
2021/07/05 11:28:03;;;;;;;1.38;0.70;;;;;;;;;;6104176;29;20150;-78
2021/07/05 11:31:23;;;;;;;1.27;0.80;;;;;;;;;;6120581;29;20083;-80
2021/07/05 11:34:45;;;;;;;1.05;0.80;;;;;;;;;;6134788;29;20114;-79
2021/07/05 11:38:00;;;;;;;0.90;0.90;;;;;;;;;;6120720;29;20059;-79
2021/07/05 11:41:11;;;;;;;0.50;0.50;;;;;;;;;;6120565;29;20043;-78
2021/07/05 11:44:15;;;;;;;1.58;0.93;;;;;;;;;;6119706;29;20122;-78
2021/07/05 11:47:39;;;;;;;1.05;0.70;;;;;;;;;;6135163;28;20460;-78
2021/07/05 11:50:41;;;;;;;1.45;1.00;;;;;;;;;;6143839;28;20519;-78
2021/07/05 11:54:10;;;;;;;0.93;0.82;;;;;;;;;;6137301;28;20043;-79
2021/07/05 11:57:13;;;;;;;1.10;1.00;;;;;;;;;;6091651;29;20047;-79
2021/07/05 12:00:16;;;;;;;1.02;1.02;;;;;;;;;;6120670;28;20055;-79
2021/07/05 12:03:18;;;;;;;;;;;;;;;;;;6134513;28;20134;-79
2021/07/05 12:06:19;;;;;;;1.08;0.98;;;;;;;;;;6119518;29;20129;-78
2021/07/05 12:09:26;;;;;;;1.23;1.10;;;;;;;;;;6116719;28;20119;-77
2021/07/05 12:12:30;;;;;;;0.80;0.80;;;;;;;;;;6117460;29;20047;-77
2021/07/05 12:15:32;;;;;;;2.50;1.05;;;;;;;;;;6117013;28;20043;-78
2021/07/05 12:18:33;;;;;;;1.00;0.90;;;;;;;;;;6117070;29;20055;-79
2021/07/05 12:21:39;;;;;;;2.95;1.00;;;;;;;;;;6118157;29;20059;-77
2021/07/05 12:24:51;;;;;;;1.50;1.00;;;;;;;;;;6132420;29;20250;-78
2021/07/05 12:27:53;;;;;;;0.90;0.90;;;;;;;;;;6131104;29;20058;-78
2021/07/05 12:30:55;;;;;;;2.10;1.30;;;;;;;;;;6116143;29;20425;-79
2021/07/05 12:33:57;;;;;;;1.67;1.50;;;;;;;;;;6129176;28;20070;-79
2021/07/05 12:36:59;;;;;;;1.42;1.20;;;;;;;;;;6114141;29;20130;-78
2021/07/05 12:40:12;;;;;;;1.30;1.20;;;;;;;;;;6129119;28;20051;-77
2021/07/05 12:43:13;;;;;;;4.97;1.85;;;;;;;;;;6115084;29;20071;-78
2021/07/05 12:46:15;;;;;;;1.38;1.27;;;;;;;;;;6120923;28;20622;-78
2021/07/05 12:49:17;;;;;;;3.10;1.50;;;;;;;;;;6141185;28;20047;-77
2021/07/05 12:52:19;;;;;;;1.50;1.40;;;;;;;;;;6141374;28;20118;-78
2021/07/05 12:55:21;;;;;;;2.00;1.40;;;;;;;;;;6147923;28;20517;-78
2021/07/05 12:58:50;;;;;;;1.42;1.33;;;;;;;;;;6138929;28;20043;-81
2021/07/05 13:01:52;;;;;;;1.42;1.23;;;;;;;;;;6128103;28;20048;-78
2021/07/05 13:05:14;;;;;;;1.02;0.90;;;;;;;;;;6129529;28;20054;-77
2021/07/05 13:08:28;;;;;;;1.63;1.03;;;;;;;;;;6137668;28;20141;-77
2021/07/05 13:11:42;;;;;;;2.90;1.17;;;;;;;;;;6126912;28;21026;-77
2021/07/05 13:14:44;;;;;;;3.38;1.35;;;;;;;;;;6134701;28;20039;-77
2021/07/05 13:17:45;;;;;;;3.03;1.20;;;;;;;;;;6133300;28;20182;-78
2021/07/05 13:20:55;;;;;;;1.80;1.33;;;;;;;;;;6135927;28;20107;-77
2021/07/05 13:23:58;;;;;;;1.70;1.20;;;;;;;;;;6111185;29;20093;-77
2021/07/05 13:27:02;;;;;;;1.85;1.45;;;;;;;;;;6107339;29;20056;-80
2021/07/05 13:30:13;;;;;;;2.97;1.48;;;;;;;;;;6123446;28;20039;-80
2021/07/05 13:33:16;;;;;;;1.48;1.38;;;;;;;;;;6111191;29;20175;-78
2021/07/05 13:36:17;;;;;;;4.38;1.48;;;;;;;;;;6115692;29;20134;-77
2021/07/05 13:39:19;;;;;;;2.50;1.40;;;;;;;;;;6116732;29;20040;-76
2021/07/05 13:42:21;;;;;;;3.35;1.75;;;;;;;;;;6115592;29;20493;-77
2021/07/05 13:45:25;;;;;;;1.95;1.75;;;;;;;;;;6114172;29;20078;-77
2021/07/05 13:48:35;;;;;;;3.47;1.70;;;;;;;;;;6138645;28;20046;-78
2021/07/05 13:51:37;;;;;;;2.40;1.83;;;;;;;;;;6139628;28;20126;-77
2021/07/05 13:54:39;;;;;;;2.60;1.80;;;;;;;;;;6136048;28;20126;-77
2021/07/05 13:57:47;;;;;;;1.70;1.60;;;;;;;;;;6093460;28;20051;-76
2021/07/05 14:00:56;;;;;;;1.70;1.60;;;;;;;;;;6096843;28;20203;-78
2021/07/05 14:03:59;;;;;;;2.33;2.15;;;;;;;;;;6102870;28;20047;-81
2021/07/05 14:07:01;;;;;;;2.38;1.85;;;;;;;;;;6106726;28;20823;-78
2021/07/05 14:10:03;;;;;;;3.28;1.90;;;;;;;;;;6105006;28;20639;-78
2021/07/05 14:13:06;;;;;;;1.97;1.73;;;;;;;;;;6097906;28;20087;-78
2021/07/05 14:16:10;;;;;;;1.80;1.70;;;;;;;;;;6106878;28;20058;-78
2021/07/05 14:19:11;;;;;;;2.20;1.75;;;;;;;;;;6127313;28;20215;-78
2021/07/05 14:22:18;;;;;;;2.45;1.50;;;;;;;;;;6152112;28;20075;-78
2021/07/05 14:25:20;;;;;;;3.28;1.60;;;;;;;;;;6135137;28;20055;-79
2021/07/05 14:28:23;;;;;;;1.80;1.60;;;;;;;;;;6138021;28;20047;-77
2021/07/05 14:31:25;;;;;;;2.30;1.70;;;;;;;;;;6141969;28;20516;-78
2021/07/05 14:34:26;;;;;;;1.40;1.30;;;;;;;;;;6118258;29;20060;-78
2021/07/05 14:37:28;;;;;;;1.40;1.30;;;;;;;;;;6141925;28;20086;-77
2021/07/05 14:40:30;;;;;;;3.15;1.45;;;;;;;;;;6135523;28;20465;-78
2021/07/05 14:43:32;;;;;;;1.60;1.43;;;;;;;;;;6138714;28;20146;-78
2021/07/05 14:46:33;;;;;;;2.03;1.73;;;;;;;;;;6136311;28;20174;-78
2021/07/05 14:49:35;;;;;;;2.70;1.38;;;;;;;;;;6138490;28;20205;-78
2021/07/05 14:52:39;;;;;;;1.90;1.20;;;;;;;;;;6137888;28;20126;-78
2021/07/05 14:55:41;;;;;;;1.40;1.30;;;;;;;;;;6135948;28;20327;-78
2021/07/05 14:58:43;;;;;;;1.50;1.40;;;;;;;;;;6138988;28;20134;-78
2021/07/05 15:01:45;;;;;;;1.27;1.17;;;;;;;;;;6141368;28;20103;-78
2021/07/05 15:04:46;;;;;;;1.00;1.00;;;;;;;;;;6116301;29;20050;-78
2021/07/05 15:07:48;;;;;;;1.40;1.23;;;;;;;;;;6140086;28;21090;-78
2021/07/05 15:10:50;;;;;;;1.30;1.20;;;;;;;;;;6128208;28;20082;-79
2021/07/05 15:13:52;;;;;;;1.10;1.10;;;;;;;;;;6116082;29;20083;-78
2021/07/05 15:16:54;;;;;;;1.40;1.20;;;;;;;;;;6116872;29;20633;-78
2021/07/05 15:19:56;;;;;;;1.98;1.20;;;;;;;;;;6117996;29;20079;-78
2021/07/05 15:23:02;;;;;;;1.10;1.00;;;;;;;;;;6116085;29;20054;-78
2021/07/05 15:26:04;;;;;;;1.52;1.00;;;;;;;;;;6115667;28;20770;-78
2021/07/05 15:29:06;;;;;;;1.30;0.90;;;;;;;;;;6116065;29;20190;-78
2021/07/05 15:32:08;;;;;;;1.55;1.00;;;;;;;;;;6115975;28;20136;-78
2021/07/05 15:35:10;;;;;;;1.02;0.93;;;;;;;;;;6114487;29;20502;-77
2021/07/05 15:38:17;;;;;;;1.25;1.05;;;;;;;;;;6115406;29;20127;-78
2021/07/05 15:41:19;;;;;;;;;;;;;;;;;;6118525;28;20122;-78
2021/07/05 15:44:21;;;;;;;0.90;0.90;;;;;;;;;;6119173;29;19930;-78
2021/07/05 15:47:23;;;;;;;1.37;1.00;;;;;;;;;;6132357;28;20054;-79
2021/07/05 15:50:26;;;;;;;2.22;1.27;;;;;;;;;;6126551;28;20171;-78
2021/07/05 15:53:28;;;;;;;1.50;1.30;;;;;;;;;;6159537;28;20039;-78
2021/07/05 15:56:29;;;;;;;1.25;1.20;;;;;;;;;;6137005;28;20178;-78
2021/07/05 15:59:31;;;;;;;2.03;1.20;;;;;;;;;;6119144;29;20467;-78
2021/07/05 16:02:33;;;;;;;2.95;1.45;;;;;;;;;;6123916;28;20090;-78
2021/07/05 16:05:35;;;;;;;1.85;1.50;;;;;;;;;;6139827;28;20047;-78
2021/07/05 16:08:37;;;;;;;1.52;1.27;;;;;;;;;;6139206;28;20142;-78
2021/07/05 16:11:39;;;;;;;1.43;1.33;;;;;;;;;;6155651;28;20044;-77
2021/07/05 16:14:41;;;;;;;1.50;1.40;;;;;;;;;;6126410;28;20476;-77
2021/07/05 16:17:43;;;;;;;2.05;1.40;;;;;;;;;;6139654;28;20102;-77
2021/07/05 16:20:46;;;;;;;1.40;1.20;;;;;;;;;;6140636;28;20039;-77
2021/07/05 16:23:48;;;;;;;1.95;1.30;;;;;;;;;;6142763;28;20043;-78
2021/07/05 16:26:49;;;;;;;1.77;1.23;;;;;;;;;;6139325;28;20147;-78
2021/07/05 16:29:51;;;;;;;1.30;1.20;;;;;;;;;;6119358;29;20075;-77
2021/07/05 16:32:52;;;;;;;1.20;1.00;;;;;;;;;;6118401;29;20127;-78
2021/07/05 16:35:54;;;;;;;1.48;1.20;;;;;;;;;;6118652;29;20074;-78
2021/07/05 16:38:56;;;;;;;1.00;1.00;;;;;;;;;;6118940;29;20518;-77
2021/07/05 16:42:01;;;;;;;2.63;1.20;;;;;;;;;;6130083;28;20825;-77
2021/07/05 16:45:04;;;;;;;1.05;1.05;;;;;;;;;;6141858;28;20435;-78
2021/07/05 16:48:08;;;;;;;1.02;1.02;;;;;;;;;;6138893;28;20080;-77
2021/07/05 16:54:11;;;;;;;2.80;1.05;;;;;;;;;;6141712;28;20222;-77
2021/07/05 16:57:19;;;;;;;1.50;0.88;;;;;;;;;;6144669;28;20066;-77
2021/07/05 17:00:27;;;;;;;1.10;1.00;;;;;;;;;;6100373;28;20525;-77
2021/07/05 17:03:36;;;;;;;1.55;1.10;;;;;;;;;;6130893;29;20063;-78
2021/07/05 17:06:37;;;;;;;1.60;0.70;;;;;;;;;;6129084;28;20098;-77
2021/07/05 17:09:39;;;;;;;1.58;1.20;;;;;;;;;;6127833;28;20494;-76
2021/07/05 17:12:49;;;;;;;1.17;1.10;;;;;;;;;;6091589;29;20532;-76
2021/07/05 17:15:50;;;;;;;1.08;0.95;;;;;;;;;;6096878;29;20118;-76
2021/07/05 17:18:52;;;;;;;1.13;1.00;;;;;;;;;;6114038;29;20128;-75
2021/07/05 17:21:54;;;;;;;1.00;1.00;;;;;;;;;;6114323;28;20043;-77
2021/07/05 17:24:56;;;;;;;2.10;0.90;;;;;;;;;;6109034;29;20498;-77
2021/07/05 17:27:58;;;;;;;0.98;0.88;;;;;;;;;;6096973;29;20058;-77
2021/07/05 17:31:03;;;;;;;1.10;0.95;;;;;;;;;;6096274;29;20088;-77
2021/07/05 17:34:11;;;;;;;1.13;1.05;;;;;;;;;;6090734;29;20062;-76
2021/07/05 17:37:17;;;;;;;1.02;1.00;;;;;;;;;;6090093;29;20635;-77
2021/07/05 17:40:20;;;;;;;1.20;1.10;;;;;;;;;;6095326;29;20040;-76
2021/07/05 17:43:22;;;;;;;1.88;1.40;;;;;;;;;;6125122;28;20047;-76
2021/07/05 17:46:24;;;;;;;1.75;1.10;;;;;;;;;;6133543;28;20088;-77
2021/07/05 17:49:26;;;;;;;1.77;1.17;;;;;;;;;;6134415;28;20087;-77
2021/07/05 17:52:28;;;;;;;1.20;1.10;;;;;;;;;;6151791;28;20439;-77
2021/07/05 17:55:30;;;;;;;1.40;1.30;;;;;;;;;;6134335;28;20126;-76
2021/07/05 17:58:31;;;;;;;1.20;1.10;;;;;;;;;;6139958;28;20126;-76
2021/07/05 18:01:33;;;;;;;1.83;1.15;;;;;;;;;;6126690;28;20464;-77
2021/07/05 18:04:41;;;;;;;2.42;1.20;;;;;;;;;;6113735;29;20055;-77
2021/07/05 18:07:44;;;;;;;1.65;1.55;;;;;;;;;;6134438;28;20182;-77
2021/07/05 18:10:50;;;;;;;1.40;1.30;;;;;;;;;;6118977;28;20043;-77
2021/07/05 18:13:51;;;;;;;2.17;1.33;;;;;;;;;;6110104;29;20111;-76
2021/07/05 18:16:53;;;;;;;2.83;1.20;;;;;;;;;;6110853;28;20134;-77
2021/07/05 18:19:55;;;;;;;1.10;1.10;;;;;;;;;;6121746;28;20505;-76
2021/07/05 18:22:56;;;;;;;1.40;1.17;;;;;;;;;;6148382;28;20142;-77
2021/07/05 18:26:04;;;;;;;1.30;1.20;;;;;;;;;;6092996;29;20131;-76
2021/07/05 18:29:09;;;;;;;1.08;1.02;;;;;;;;;;6109198;29;20241;-77